Time;durP1;ratioP1;P1;durP2;ratioP2;P2;SDS_P1;SDS_P2;PMS_P1;PMS_P2;Temp;Humidity;BMP_temperature;BMP_pressure;BME280_temperature;BME280_humidity;BME280_pressure;Samples;Min_cycle;Max_cycle;Signal;HPM_P1;HPM_P2
2023/11/13 00:00:59;;;;;;;15.02;11.98;;;4.90;99.90;;;;;;4978153;28;20607;-77
2023/11/13 00:03:26;;;;;;;18.90;13.55;;;4.90;99.90;;;;;;4981569;28;20405;-78
2023/11/13 00:05:52;;;;;;;16.00;12.65;;;4.90;99.90;;;;;;4981760;28;20034;-78
2023/11/13 00:08:19;;;;;;;16.33;12.07;;;4.90;99.90;;;;;;4999285;28;20053;-75
2023/11/13 00:10:45;;;;;;;15.95;11.88;;;4.80;99.90;;;;;;4999715;28;20038;-77
2023/11/13 00:13:13;;;;;;;16.17;12.30;;;4.80;99.90;;;;;;5013341;28;20045;-77
2023/11/13 00:15:39;;;;;;;14.70;10.48;;;4.80;99.90;;;;;;4996366;28;20048;-75
2023/11/13 00:18:06;;;;;;;14.65;11.15;;;4.70;99.90;;;;;;5015715;28;20044;-78
2023/11/13 00:20:32;;;;;;;13.90;11.20;;;4.70;99.90;;;;;;4995883;28;20034;-78
2023/11/13 00:22:58;;;;;;;15.68;11.95;;;4.70;99.90;;;;;;4997138;28;20505;-77
2023/11/13 00:25:25;;;;;;;15.77;11.68;;;4.60;99.90;;;;;;4999187;28;20489;-77
2023/11/13 00:27:51;;;;;;;16.95;12.25;;;4.60;99.90;;;;;;4998181;28;20034;-78
2023/11/13 00:30:18;;;;;;;15.60;11.48;;;4.60;99.90;;;;;;5010590;28;20043;-74
2023/11/13 00:32:44;;;;;;;14.98;10.88;;;4.60;99.90;;;;;;5012925;28;20713;-77
2023/11/13 00:35:11;;;;;;;16.17;11.65;;;4.60;99.90;;;;;;4964437;28;20034;-76
2023/11/13 00:37:37;;;;;;;14.85;11.10;;;4.60;99.90;;;;;;4997289;28;20356;-77
2023/11/13 00:40:04;;;;;;;13.07;10.15;;;4.50;99.90;;;;;;4998384;28;20506;-74
2023/11/13 00:42:31;;;;;;;13.48;10.88;;;4.50;99.90;;;;;;4995309;28;20056;-77
2023/11/13 00:44:57;;;;;;;13.30;10.30;;;4.50;99.90;;;;;;4979900;28;20064;-77
2023/11/13 00:47:24;;;;;;;16.25;10.77;;;4.50;99.90;;;;;;4997855;28;20473;-78
2023/11/13 00:49:50;;;;;;;17.98;12.02;;;4.40;99.90;;;;;;4995753;28;20033;-76
2023/11/13 00:52:17;;;;;;;16.65;13.02;;;4.40;99.90;;;;;;4979527;28;20481;-76
2023/11/13 00:54:43;;;;;;;15.80;11.70;;;4.50;99.90;;;;;;4980831;28;20927;-78
2023/11/13 00:57:09;;;;;;;16.60;11.95;;;4.50;99.90;;;;;;4997078;28;20041;-75
2023/11/13 00:59:35;;;;;;;17.35;13.05;;;4.50;99.90;;;;;;4996608;28;20428;-78
2023/11/13 01:02:02;;;;;;;19.55;13.77;;;4.50;99.90;;;;;;4982339;28;20041;-75
2023/11/13 01:04:29;;;;;;;14.98;11.30;;;4.50;99.90;;;;;;5012629;28;20048;-77
2023/11/13 01:06:56;;;;;;;15.98;11.95;;;4.50;99.90;;;;;;4979959;28;20053;-78
2023/11/13 01:09:22;;;;;;;16.55;12.40;;;4.50;99.90;;;;;;4962571;28;20049;-79
2023/11/13 01:11:50;;;;;;;14.85;12.00;;;4.50;99.90;;;;;;4962777;28;20041;-78
2023/11/13 01:14:16;;;;;;;16.63;11.60;;;4.50;99.90;;;;;;4998014;28;20535;-78
2023/11/13 01:16:43;;;;;;;16.30;11.60;;;4.50;99.90;;;;;;4995099;28;20034;-77
2023/11/13 01:19:09;;;;;;;19.27;13.98;;;4.50;99.90;;;;;;4996837;28;20049;-76
2023/11/13 01:21:37;;;;;;;17.23;12.95;;;4.50;99.90;;;;;;4994853;28;20066;-73
2023/11/13 01:24:03;;;;;;;16.58;12.65;;;4.50;99.90;;;;;;4963902;28;20026;-77
2023/11/13 01:26:31;;;;;;;17.77;12.52;;;4.50;99.90;;;;;;4996431;28;20037;-76
2023/11/13 01:28:57;;;;;;;20.10;12.77;;;4.50;99.90;;;;;;4979997;28;20034;-73
2023/11/13 01:31:24;;;;;;;18.05;13.10;;;4.50;99.90;;;;;;5024869;28;20057;-77
2023/11/13 01:33:50;;;;;;;18.83;13.77;;;4.50;99.90;;;;;;4996280;28;20053;-77
2023/11/13 01:36:17;;;;;;;18.08;13.13;;;4.50;99.90;;;;;;4993701;28;20473;-77
2023/11/13 01:38:43;;;;;;;17.95;12.68;;;4.50;99.90;;;;;;4995267;28;20500;-73
2023/11/13 01:41:09;;;;;;;17.33;12.90;;;4.50;99.90;;;;;;4994780;28;20400;-74
2023/11/13 01:43:37;;;;;;;15.80;12.40;;;4.50;99.90;;;;;;5009456;28;20501;-75
2023/11/13 01:46:06;;;;;;;14.85;11.23;;;4.40;99.90;;;;;;5028219;28;20040;-77
2023/11/13 01:48:33;;;;;;;16.25;12.27;;;4.40;99.90;;;;;;4994582;28;20038;-77
2023/11/13 01:51:00;;;;;;;20.33;13.75;;;4.50;99.90;;;;;;4962795;28;20038;-76
2023/11/13 01:53:27;;;;;;;17.10;13.07;;;4.50;99.90;;;;;;4995329;28;20037;-73
2023/11/13 01:55:56;;;;;;;16.27;11.63;;;4.50;99.90;;;;;;4996396;28;20049;-77
2023/11/13 01:58:23;;;;;;;19.60;13.35;;;4.50;99.90;;;;;;4979350;28;20044;-77
2023/11/13 02:00:50;;;;;;;18.17;12.85;;;4.50;99.90;;;;;;4977725;28;20994;-76
2023/11/13 02:03:17;;;;;;;20.83;13.82;;;4.50;99.90;;;;;;4995857;28;20358;-75
2023/11/13 02:05:45;;;;;;;17.95;12.98;;;4.60;99.90;;;;;;5012477;28;20034;-77
2023/11/13 02:08:11;;;;;;;19.17;13.40;;;4.60;99.90;;;;;;5009726;28;20064;-76
2023/11/13 02:10:39;;;;;;;17.45;12.68;;;4.70;99.90;;;;;;4994796;28;20465;-77
2023/11/13 02:13:07;;;;;;;19.73;13.93;;;4.70;99.90;;;;;;4976632;28;20033;-73
2023/11/13 02:15:37;;;;;;;19.60;13.45;;;4.80;99.90;;;;;;4978731;28;20509;-75
2023/11/13 02:18:04;;;;;;;14.98;12.07;;;4.80;99.90;;;;;;4979624;28;20481;-77
2023/11/13 02:20:32;;;;;;;18.00;12.43;;;4.80;99.90;;;;;;4996210;28;20634;-76
2023/11/13 02:23:00;;;;;;;17.83;13.27;;;4.90;99.90;;;;;;4977555;28;20026;-77
2023/11/13 02:25:27;;;;;;;20.58;13.73;;;4.90;99.90;;;;;;4979643;28;20045;-74
2023/11/13 02:28:01;;;;;;;22.40;13.50;;;4.90;99.90;;;;;;4993592;28;20045;-76
2023/11/13 02:30:27;;;;;;;20.33;13.52;;;5.00;99.90;;;;;;5005923;28;20034;-75
2023/11/13 02:32:53;;;;;;;18.02;13.00;;;5.00;99.90;;;;;;4961423;28;20056;-77
2023/11/13 02:35:20;;;;;;;16.27;13.07;;;5.00;99.90;;;;;;4994152;28;20388;-76
2023/11/13 02:37:46;;;;;;;19.10;12.65;;;5.00;99.90;;;;;;4994623;28;20025;-77
2023/11/13 02:40:13;;;;;;;16.48;11.85;;;5.00;99.90;;;;;;4995693;28;20034;-74
2023/11/13 02:42:40;;;;;;;21.20;14.48;;;5.00;99.90;;;;;;4997139;28;20022;-77
2023/11/13 02:45:08;;;;;;;18.02;12.02;;;5.00;99.90;;;;;;5027702;28;20049;-76
2023/11/13 02:47:35;;;;;;;23.20;14.68;;;5.00;99.90;;;;;;4996412;28;20397;-75
2023/11/13 02:50:03;;;;;;;23.95;15.32;;;5.10;99.90;;;;;;4978363;28;20033;-77
2023/11/13 02:52:30;;;;;;;19.48;13.57;;;5.10;99.90;;;;;;4963498;28;20512;-76
2023/11/13 02:54:56;;;;;;;17.98;13.32;;;5.10;99.90;;;;;;4961389;28;20507;-75
2023/11/13 02:57:23;;;;;;;19.20;13.73;;;5.10;99.90;;;;;;5009848;28;20033;-76
2023/11/13 02:59:50;;;;;;;21.27;13.60;;;5.10;99.90;;;;;;4978232;28;20042;-75
2023/11/13 03:02:17;;;;;;;19.30;12.95;;;5.10;99.90;;;;;;4994593;28;20705;-75
2023/11/13 03:04:44;;;;;;;17.60;12.45;;;5.10;99.90;;;;;;4961744;28;20045;-74
2023/11/13 03:07:10;;;;;;;19.38;13.40;;;5.10;99.90;;;;;;4994351;28;20048;-77
2023/11/13 03:09:36;;;;;;;15.80;11.93;;;5.10;99.90;;;;;;4995487;28;20038;-76
2023/11/13 03:12:04;;;;;;;16.60;11.43;;;5.10;99.90;;;;;;4994924;28;20049;-76
2023/11/13 03:14:31;;;;;;;16.33;11.68;;;5.10;99.90;;;;;;4994869;28;20045;-77
2023/11/13 03:16:58;;;;;;;19.17;11.52;;;5.10;99.90;;;;;;4979057;28;20068;-77
2023/11/13 03:19:24;;;;;;;17.52;11.27;;;5.10;99.90;;;;;;4994264;28;20045;-77
2023/11/13 03:21:50;;;;;;;15.93;11.55;;;5.10;99.90;;;;;;4995935;28;20048;-75
2023/11/13 03:24:17;;;;;;;17.92;11.82;;;5.10;99.90;;;;;;4994126;28;20037;-76
2023/11/13 03:26:43;;;;;;;17.83;11.48;;;5.10;99.90;;;;;;4996333;28;20045;-78
2023/11/13 03:29:10;;;;;;;15.93;11.98;;;5.20;99.90;;;;;;4995925;28;20025;-76
2023/11/13 03:31:36;;;;;;;17.90;12.43;;;5.20;99.90;;;;;;4993197;28;20065;-74
2023/11/13 03:34:05;;;;;;;17.15;12.65;;;5.20;99.90;;;;;;5010357;28;20041;-76
2023/11/13 03:36:32;;;;;;;17.42;11.90;;;5.20;99.90;;;;;;4994664;28;20030;-74
2023/11/13 03:38:58;;;;;;;16.63;12.63;;;5.20;99.90;;;;;;5011769;28;20030;-75
2023/11/13 03:41:24;;;;;;;17.15;11.95;;;5.30;99.90;;;;;;4996097;28;20476;-76
2023/11/13 03:43:51;;;;;;;16.23;11.18;;;5.30;99.90;;;;;;4976819;28;20393;-77
2023/11/13 03:46:17;;;;;;;15.65;10.38;;;5.30;99.90;;;;;;4977830;28;20412;-77
2023/11/13 03:48:43;;;;;;;15.02;10.07;;;5.40;99.90;;;;;;4993680;28;21399;-76
2023/11/13 03:51:10;;;;;;;17.50;11.43;;;5.40;99.90;;;;;;4993594;28;20026;-74
2023/11/13 03:53:36;;;;;;;14.88;10.50;;;5.50;99.90;;;;;;4977782;28;20045;-74
2023/11/13 03:56:03;;;;;;;16.17;10.82;;;5.50;99.90;;;;;;5011091;28;20040;-74
2023/11/13 03:58:30;;;;;;;15.00;11.35;;;5.50;99.90;;;;;;4962522;28;20049;-76
2023/11/13 04:00:56;;;;;;;15.30;11.63;;;5.50;99.90;;;;;;4993027;28;20536;-73
2023/11/13 04:03:23;;;;;;;16.23;10.50;;;5.50;99.90;;;;;;4993889;28;20030;-77
2023/11/13 04:05:50;;;;;;;18.23;13.60;;;5.60;99.90;;;;;;4993879;28;20533;-78
2023/11/13 04:08:17;;;;;;;19.00;12.65;;;5.60;99.90;;;;;;4962149;28;20394;-74
2023/11/13 04:10:44;;;;;;;17.83;13.27;;;5.60;99.90;;;;;;4960981;28;20030;-76
2023/11/13 04:13:11;;;;;;;19.38;13.88;;;5.70;99.90;;;;;;4994152;28;20034;-76
2023/11/13 04:15:38;;;;;;;21.70;14.82;;;5.70;99.90;;;;;;4977414;28;20052;-76
2023/11/13 04:18:04;;;;;;;18.85;14.50;;;5.70;99.90;;;;;;4978387;28;20030;-77
2023/11/13 04:20:31;;;;;;;20.27;14.15;;;5.80;99.90;;;;;;4993904;28;20025;-76
2023/11/13 04:22:57;;;;;;;17.38;11.65;;;5.70;99.90;;;;;;4995206;28;20026;-78
2023/11/13 04:25:24;;;;;;;15.65;11.35;;;5.80;99.90;;;;;;4981084;28;20515;-78
2023/11/13 04:27:50;;;;;;;20.63;14.30;;;5.80;99.90;;;;;;4998782;28;20050;-77
2023/11/13 04:30:16;;;;;;;17.10;11.60;;;5.80;99.90;;;;;;4999344;28;20042;-73
2023/11/13 04:32:43;;;;;;;19.25;14.43;;;5.80;99.90;;;;;;4998320;28;20034;-77
2023/11/13 04:35:09;;;;;;;20.10;13.90;;;5.80;99.90;;;;;;4998985;28;20030;-76
2023/11/13 04:37:35;;;;;;;20.77;13.25;;;5.90;99.90;;;;;;4997294;28;20037;-77
2023/11/13 04:40:04;;;;;;;19.13;14.23;;;5.90;99.90;;;;;;4998324;28;20049;-77
2023/11/13 04:42:32;;;;;;;19.92;14.40;;;5.90;99.90;;;;;;5013491;28;20034;-76
2023/11/13 04:44:58;;;;;;;23.77;15.10;;;5.90;99.90;;;;;;5031180;28;20026;-76
2023/11/13 04:47:24;;;;;;;21.75;13.80;;;5.90;99.90;;;;;;4997787;28;20049;-74
2023/11/13 04:49:51;;;;;;;20.08;13.27;;;6.00;99.90;;;;;;4998194;28;20030;-78
2023/11/13 04:52:17;;;;;;;15.30;11.55;;;6.00;99.90;;;;;;4996875;28;20128;-77
2023/11/13 04:54:43;;;;;;;18.08;12.55;;;6.00;99.90;;;;;;4997875;28;20052;-78
2023/11/13 04:57:10;;;;;;;15.90;11.27;;;6.00;99.90;;;;;;4983176;28;20034;-74
2023/11/13 04:59:36;;;;;;;17.25;12.70;;;6.10;99.90;;;;;;4997314;28;20038;-75
2023/11/13 05:02:03;;;;;;;14.98;11.05;;;6.10;99.90;;;;;;4964434;28;20405;-76
2023/11/13 05:04:29;;;;;;;17.17;12.70;;;6.10;99.90;;;;;;5013039;28;20568;-77
2023/11/13 05:06:56;;;;;;;16.35;10.68;;;6.20;99.90;;;;;;4982044;28;20064;-74
2023/11/13 05:09:26;;;;;;;17.02;12.32;;;6.20;99.90;;;;;;5012951;28;20060;-73
2023/11/13 05:11:52;;;;;;;15.18;10.68;;;6.20;99.90;;;;;;4993049;28;20033;-74
2023/11/13 05:14:19;;;;;;;16.17;12.95;;;6.20;99.90;;;;;;4981790;28;20034;-73
2023/11/13 05:16:45;;;;;;;17.35;12.73;;;6.20;99.90;;;;;;4982823;28;20030;-76
2023/11/13 05:19:12;;;;;;;19.45;13.73;;;6.30;99.90;;;;;;4981398;28;20511;-78
2023/11/13 05:21:38;;;;;;;15.77;12.93;;;6.30;99.90;;;;;;4980751;28;20044;-78
2023/11/13 05:24:06;;;;;;;21.77;15.05;;;6.30;99.90;;;;;;4980647;28;20032;-77
2023/11/13 05:26:32;;;;;;;21.55;15.10;;;6.30;99.90;;;;;;4999833;28;20042;-77
2023/11/13 05:28:59;;;;;;;19.58;15.20;;;6.30;99.90;;;;;;4980036;28;20066;-76
2023/11/13 05:31:27;;;;;;;20.05;13.55;;;6.30;99.90;;;;;;4995036;28;20041;-76
2023/11/13 05:33:53;;;;;;;21.17;15.25;;;6.30;99.90;;;;;;4979278;28;20034;-76
2023/11/13 05:36:20;;;;;;;19.48;13.43;;;6.30;99.90;;;;;;4981386;28;20041;-77
2023/11/13 05:38:46;;;;;;;17.80;12.82;;;6.40;99.90;;;;;;4997942;28;20034;-75
2023/11/13 05:41:13;;;;;;;25.30;16.73;;;6.30;99.90;;;;;;4980600;28;20040;-75
2023/11/13 05:43:39;;;;;;;20.17;16.42;;;6.40;99.90;;;;;;4996686;28;20049;-76
2023/11/13 05:46:07;;;;;;;22.65;15.95;;;6.40;99.90;;;;;;4997344;28;20594;-77
2023/11/13 05:48:34;;;;;;;23.95;16.88;;;6.40;99.90;;;;;;4999015;28;20041;-76
2023/11/13 05:51:00;;;;;;;24.02;16.58;;;6.40;99.90;;;;;;4963163;28;20033;-73
2023/11/13 05:53:27;;;;;;;20.95;16.15;;;6.40;99.90;;;;;;4998504;28;21513;-75
2023/11/13 05:55:53;;;;;;;19.55;15.55;;;6.40;99.90;;;;;;4966629;28;20049;-77
2023/11/13 05:58:19;;;;;;;23.75;16.08;;;6.40;99.90;;;;;;4998489;28;20048;-77
2023/11/13 06:00:46;;;;;;;23.50;15.95;;;6.40;99.90;;;;;;4979628;28;20046;-77
2023/11/13 06:03:12;;;;;;;28.08;16.60;;;6.50;99.90;;;;;;4979823;28;20044;-74
2023/11/13 06:05:39;;;;;;;24.13;17.15;;;6.50;99.90;;;;;;5028550;28;20504;-75
2023/11/13 06:08:06;;;;;;;29.63;19.10;;;6.50;99.90;;;;;;4995886;28;20485;-77
2023/11/13 06:10:33;;;;;;;25.40;19.10;;;6.50;99.90;;;;;;4979352;28;20034;-73
2023/11/13 06:12:59;;;;;;;25.15;17.75;;;6.50;99.90;;;;;;4997524;28;20033;-77
2023/11/13 06:15:25;;;;;;;24.00;16.70;;;6.50;99.90;;;;;;4979380;28;20040;-77
2023/11/13 06:17:52;;;;;;;23.73;15.10;;;6.60;99.90;;;;;;4997610;28;20758;-77
2023/11/13 06:20:19;;;;;;;22.58;16.23;;;6.60;99.90;;;;;;4981456;28;20041;-75
2023/11/13 06:22:47;;;;;;;22.05;16.52;;;6.60;99.90;;;;;;5007555;28;20057;-75
2023/11/13 06:25:14;;;;;;;20.00;15.10;;;6.70;99.90;;;;;;4994737;28;20528;-77
2023/11/13 06:27:41;;;;;;;30.33;20.17;;;6.70;99.90;;;;;;4996283;28;20062;-75
2023/11/13 06:30:12;;;;;;;29.40;18.90;;;6.70;99.90;;;;;;4996109;28;20033;-76
2023/11/13 06:32:39;;;;;;;34.97;20.58;;;6.70;99.90;;;;;;4995658;28;20048;-77
2023/11/13 06:35:06;;;;;;;27.52;18.73;;;6.70;99.90;;;;;;4962774;28;20042;-76
2023/11/13 06:37:32;;;;;;;31.08;21.15;;;6.70;99.90;;;;;;4997495;28;20026;-77
2023/11/13 06:39:58;;;;;;;26.73;18.15;;;6.80;99.90;;;;;;4995634;28;20052;-76
2023/11/13 06:42:25;;;;;;;26.58;15.38;;;6.80;99.90;;;;;;5011894;28;20041;-76
2023/11/13 06:44:53;;;;;;;27.95;17.50;;;6.80;99.90;;;;;;4978678;28;20034;-76
2023/11/13 06:47:19;;;;;;;23.08;16.30;;;6.80;99.90;;;;;;4978855;28;20050;-77
2023/11/13 06:49:45;;;;;;;51.67;23.63;;;6.80;99.90;;;;;;4978725;28;20607;-74
2023/11/13 06:52:12;;;;;;;33.00;21.67;;;6.80;99.90;;;;;;4978951;28;20038;-74
2023/11/13 06:54:39;;;;;;;47.47;21.98;;;6.90;99.90;;;;;;4994112;28;20052;-76
2023/11/13 06:57:06;;;;;;;44.83;25.60;;;6.90;99.90;;;;;;4995227;28;20076;-75
2023/11/13 06:59:32;;;;;;;35.33;21.85;;;6.90;99.90;;;;;;4993786;28;20030;-75
2023/11/13 07:01:59;;;;;;;55.70;22.52;;;6.90;99.90;;;;;;4994854;28;20992;-76
2023/11/13 07:04:26;;;;;;;43.45;22.08;;;6.90;99.90;;;;;;4995644;28;20042;-77
2023/11/13 07:06:52;;;;;;;50.55;22.98;;;7.00;99.90;;;;;;4996214;28;20416;-73
2023/11/13 07:09:19;;;;;;;30.90;19.75;;;7.00;99.90;;;;;;4978940;28;20030;-74
2023/11/13 07:11:47;;;;;;;35.00;18.83;;;7.00;99.90;;;;;;4961817;28;20607;-76
2023/11/13 07:14:15;;;;;;;31.15;20.10;;;7.10;99.90;;;;;;5024808;28;20048;-76
2023/11/13 07:16:42;;;;;;;39.55;21.75;;;7.10;99.90;;;;;;5026081;28;20033;-76
2023/11/13 07:19:10;;;;;;;33.35;19.63;;;7.10;99.90;;;;;;4995371;28;20087;-76
2023/11/13 07:21:37;;;;;;;26.63;18.40;;;7.10;99.90;;;;;;4995656;28;20064;-74
2023/11/13 07:24:05;;;;;;;25.25;16.73;;;7.20;99.90;;;;;;4962740;28;20042;-76
2023/11/13 07:26:32;;;;;;;29.95;15.82;;;7.20;99.90;;;;;;4977923;28;20053;-75
2023/11/13 07:28:58;;;;;;;24.73;16.33;;;7.20;99.90;;;;;;4994308;28;20045;-74
2023/11/13 07:31:25;;;;;;;29.95;17.00;;;7.30;99.90;;;;;;5009074;28;20093;-76
2023/11/13 07:33:53;;;;;;;29.23;16.30;;;7.30;99.90;;;;;;4976833;28;20037;-77
2023/11/13 07:36:19;;;;;;;29.30;16.50;;;7.30;99.90;;;;;;4983161;28;20034;-73
2023/11/13 07:38:46;;;;;;;31.50;17.67;;;7.30;99.90;;;;;;4994269;28;20767;-73
2023/11/13 07:41:12;;;;;;;27.33;17.98;;;7.40;99.90;;;;;;4977737;28;20025;-75
2023/11/13 07:43:41;;;;;;;29.75;16.95;;;7.40;99.90;;;;;;4994085;28;20040;-75
2023/11/13 07:46:08;;;;;;;45.03;19.02;;;7.40;99.90;;;;;;4959313;28;20030;-75
2023/11/13 07:48:35;;;;;;;27.60;16.58;;;7.40;99.90;;;;;;4977422;28;20038;-74
2023/11/13 07:51:06;;;;;;;40.10;18.70;;;7.40;99.90;;;;;;4996780;28;20018;-74
2023/11/13 07:53:35;;;;;;;33.00;17.17;;;7.50;99.90;;;;;;4978054;28;20305;-75
2023/11/13 07:56:03;;;;;;;25.17;15.60;;;7.50;99.90;;;;;;4972687;28;20034;-74
2023/11/13 07:58:29;;;;;;;27.50;13.77;;;7.50;99.90;;;;;;4990149;28;20030;-75
2023/11/13 08:00:56;;;;;;;18.60;12.55;;;7.50;99.90;;;;;;4995481;28;20346;-76
2023/11/13 08:03:24;;;;;;;25.23;14.80;;;7.60;99.90;;;;;;4997678;28;20493;-76
2023/11/13 08:05:50;;;;;;;21.38;13.60;;;7.60;99.90;;;;;;4997288;28;20477;-75
2023/11/13 08:08:17;;;;;;;22.83;13.15;;;7.60;99.90;;;;;;4997624;28;20034;-74
2023/11/13 08:10:47;;;;;;;23.23;12.57;;;7.60;99.90;;;;;;4996573;28;20420;-76
2023/11/13 08:13:14;;;;;;;25.38;12.98;;;7.70;99.90;;;;;;4996604;28;20022;-76
2023/11/13 08:15:43;;;;;;;22.10;11.82;;;7.70;99.90;;;;;;4997402;28;20026;-75
2023/11/13 08:18:14;;;;;;;23.50;12.48;;;7.70;99.90;;;;;;4963942;28;20038;-75
2023/11/13 08:20:42;;;;;;;20.38;13.15;;;7.70;99.90;;;;;;4995678;28;20037;-73
2023/11/13 08:23:13;;;;;;;18.38;12.10;;;7.70;99.90;;;;;;4996003;28;20401;-75
2023/11/13 08:25:48;;;;;;;24.75;12.00;;;7.80;99.90;;;;;;4996821;28;20038;-72
2023/11/13 08:28:14;;;;;;;26.25;12.88;;;7.80;99.90;;;;;;4996438;28;20071;-77
2023/11/13 08:30:43;;;;;;;19.67;12.80;;;7.80;99.90;;;;;;4999755;28;20053;-74
2023/11/13 08:33:10;;;;;;;18.98;11.80;;;7.90;99.90;;;;;;5012830;28;20045;-74
2023/11/13 08:35:38;;;;;;;19.92;12.48;;;7.90;99.90;;;;;;4981201;28;20045;-74
2023/11/13 08:38:08;;;;;;;21.02;12.85;;;8.00;99.90;;;;;;4981206;28;20048;-75
2023/11/13 08:40:35;;;;;;;20.38;11.80;;;8.00;99.90;;;;;;4997991;28;20030;-76
2023/11/13 08:43:06;;;;;;;19.02;11.68;;;8.00;99.90;;;;;;4981165;28;20030;-74
2023/11/13 08:45:32;;;;;;;20.83;12.35;;;8.10;99.90;;;;;;5015339;28;20381;-75
2023/11/13 08:47:59;;;;;;;17.27;11.38;;;8.10;99.90;;;;;;4980293;28;20073;-73
2023/11/13 08:50:26;;;;;;;21.02;13.15;;;8.20;99.90;;;;;;5014465;28;20048;-75
2023/11/13 08:52:53;;;;;;;21.60;13.07;;;8.20;99.90;;;;;;4964879;28;20802;-74
2023/11/13 08:55:22;;;;;;;17.40;11.38;;;8.30;99.90;;;;;;4980335;28;20033;-76
2023/11/13 08:57:49;;;;;;;19.55;11.02;;;8.30;99.90;;;;;;4980559;28;20055;-76
2023/11/13 09:00:28;;;;;;;15.88;10.90;;;8.40;99.90;;;;;;4997300;28;20049;-76
2023/11/13 09:02:56;;;;;;;16.77;10.65;;;8.40;99.90;;;;;;4998253;28;20029;-75
2023/11/13 09:05:25;;;;;;;13.30;9.27;;;8.50;99.90;;;;;;4980670;28;20038;-74
2023/11/13 09:07:56;;;;;;;14.80;9.93;;;8.50;99.90;;;;;;4980032;28;20041;-75
2023/11/13 09:10:26;;;;;;;15.40;9.70;;;8.50;99.90;;;;;;4999333;28;20042;-74
2023/11/13 09:13:00;;;;;;;14.75;10.05;;;8.60;99.90;;;;;;4996564;28;20710;-75
2023/11/13 09:15:31;;;;;;;18.42;9.52;;;8.60;99.90;;;;;;4999965;28;20440;-77
2023/11/13 09:18:07;;;;;;;16.27;10.98;;;8.70;99.90;;;;;;4998691;28;20037;-75
2023/11/13 09:20:34;;;;;;;17.40;10.38;;;8.70;99.90;;;;;;4996535;28;20458;-75
2023/11/13 09:23:03;;;;;;;34.30;15.27;;;8.70;99.90;;;;;;4981110;28;20556;-75
2023/11/13 09:25:31;;;;;;;17.40;12.55;;;8.80;99.90;;;;;;4998454;28;20037;-76
2023/11/13 09:27:58;;;;;;;17.65;12.85;;;8.80;99.90;;;;;;4965114;28;20045;-76
2023/11/13 09:30:26;;;;;;;22.77;13.80;;;8.80;99.90;;;;;;4996854;28;20048;-75
2023/11/13 09:32:53;;;;;;;21.33;13.77;;;8.90;99.90;;;;;;4980888;28;20044;-75
2023/11/13 09:35:24;;;;;;;24.77;15.38;;;8.90;99.90;;;;;;4999004;28;20266;-74
2023/11/13 09:37:56;;;;;;;19.08;13.52;;;9.00;99.90;;;;;;5011617;28;20033;-79
2023/11/13 09:40:25;;;;;;;19.98;14.15;;;9.00;99.90;;;;;;4995400;28;20572;-76
2023/11/13 09:43:03;;;;;;;20.25;13.52;;;9.10;99.90;;;;;;5013369;28;20038;-77
2023/11/13 09:45:30;;;;;;;19.40;12.60;;;9.10;99.90;;;;;;5028090;28;20033;-77
2023/11/13 09:48:00;;;;;;;16.75;10.65;;;9.20;99.90;;;;;;4995048;28;20421;-76
2023/11/13 09:50:27;;;;;;;25.75;14.07;;;9.20;99.90;;;;;;4996227;28;20037;-78
2023/11/13 09:52:57;;;;;;;20.98;13.25;;;9.30;99.90;;;;;;4980208;28;20029;-76
2023/11/13 09:55:26;;;;;;;22.50;13.52;;;9.30;99.90;;;;;;4998899;28;20029;-78
2023/11/13 09:57:53;;;;;;;22.40;13.20;;;9.40;99.90;;;;;;4996287;28;20053;-78
2023/11/13 10:00:24;;;;;;;21.80;12.50;;;9.50;99.90;;;;;;4995642;28;20370;-77
2023/11/13 10:02:53;;;;;;;19.48;12.20;;;9.50;99.90;;;;;;4995984;28;20042;-76
2023/11/13 10:05:21;;;;;;;15.95;10.23;;;9.60;99.90;;;;;;4997739;28;20045;-74
2023/11/13 10:07:55;;;;;;;16.75;9.68;;;9.70;99.90;;;;;;4994405;28;20046;-76
2023/11/13 10:10:27;;;;;;;13.40;8.80;;;9.70;99.90;;;;;;4996581;28;20056;-76
2023/11/13 10:13:01;;;;;;;18.92;8.02;;;9.80;99.90;;;;;;4997560;28;20041;-75
2023/11/13 10:15:29;;;;;;;18.70;9.15;;;9.80;99.90;;;;;;4996670;28;20056;-74
2023/11/13 10:18:04;;;;;;;16.60;7.18;;;9.90;99.90;;;;;;4995764;28;20029;-76
2023/11/13 10:20:30;;;;;;;12.45;5.90;;;10.00;99.90;;;;;;5009984;28;20038;-75
2023/11/13 10:23:05;;;;;;;12.45;6.05;;;10.00;99.90;;;;;;4995303;28;20706;-77
2023/11/13 10:25:50;;;;;;;14.27;5.28;;;10.00;99.90;;;;;;4994685;28;20030;-77
2023/11/13 10:28:18;;;;;;;14.93;6.68;;;10.00;99.90;;;;;;4977359;28;20049;-75
2023/11/13 10:31:04;;;;;;;12.50;6.10;;;10.00;99.90;;;;;;4981854;28;20034;-77
2023/11/13 10:33:31;;;;;;;9.25;4.78;;;10.00;99.90;;;;;;4995427;28;20046;-76
2023/11/13 10:36:06;;;;;;;17.95;6.47;;;10.00;99.90;;;;;;4996733;28;20049;-78
2023/11/13 10:38:45;;;;;;;12.23;5.97;;;10.10;99.90;;;;;;4995470;28;20392;-74
2023/11/13 10:41:14;;;;;;;15.25;5.38;;;10.10;99.90;;;;;;4995248;28;21188;-75
2023/11/13 10:43:43;;;;;;;7.38;4.18;;;10.10;99.90;;;;;;4996217;28;20044;-74
2023/11/13 10:46:12;;;;;;;8.02;4.97;;;10.10;99.90;;;;;;4996719;28;20165;-76
2023/11/13 10:48:39;;;;;;;8.95;3.55;;;10.20;99.90;;;;;;4978853;28;20040;-76
2023/11/13 10:51:06;;;;;;;10.35;4.38;;;10.20;99.90;;;;;;4979256;28;20037;-76
2023/11/13 10:53:41;;;;;;;6.15;3.58;;;10.20;99.90;;;;;;4993558;28;20029;-78
2023/11/13 10:56:08;;;;;;;6.90;2.97;;;10.20;99.90;;;;;;4996670;28;20349;-82
2023/11/13 10:58:35;;;;;;;9.10;3.92;;;10.20;99.90;;;;;;4996095;28;20061;-77
2023/11/13 11:01:12;;;;;;;7.95;3.67;;;10.20;99.90;;;;;;4997990;28;20492;-75
2023/11/13 11:03:43;;;;;;;11.68;4.13;;;10.20;99.90;;;;;;4994989;28;20029;-74
2023/11/13 11:06:16;;;;;;;7.90;3.60;;;10.20;99.90;;;;;;4978047;28;20057;-74
2023/11/13 11:08:44;;;;;;;;;;;10.20;99.90;;;;;;4996812;28;21447;-77
2023/11/13 11:11:14;;;;;;;9.63;3.22;;;10.20;99.90;;;;;;5008085;28;19913;-75
2023/11/13 11:13:53;;;;;;;5.03;2.85;;;10.20;99.90;;;;;;4998104;28;20038;-75
2023/11/13 11:16:21;;;;;;;4.15;1.98;;;10.20;99.90;;;;;;4994978;28;20033;-73
2023/11/13 11:18:57;;;;;;;5.28;1.80;;;10.20;99.90;;;;;;4961902;28;20423;-75
2023/11/13 11:21:36;;;;;;;9.88;2.67;;;10.20;99.90;;;;;;5007596;28;20378;-74
2023/11/13 11:24:11;;;;;;;5.10;2.45;;;10.20;99.90;;;;;;4995550;28;20381;-77
2023/11/13 11:27:00;;;;;;;5.05;2.38;;;10.20;99.90;;;;;;4995518;28;20042;-75
2023/11/13 11:29:36;;;;;;;4.82;2.22;;;10.20;99.90;;;;;;5012213;28;20088;-75
2023/11/13 11:32:14;;;;;;;5.22;1.90;;;10.20;99.90;;;;;;4983821;28;20038;-77
2023/11/13 11:34:49;;;;;;;4.82;2.95;;;10.30;99.90;;;;;;4983442;28;20551;-74
2023/11/13 11:37:16;;;;;;;4.30;2.00;;;10.30;99.90;;;;;;4976906;28;20053;-77
2023/11/13 11:39:49;;;;;;;5.38;2.90;;;10.30;99.90;;;;;;4979337;28;20033;-75
2023/11/13 11:42:27;;;;;;;;;;;10.30;99.90;;;;;;5011253;28;20041;-75
2023/11/13 11:44:53;;;;;;;4.45;2.58;;;10.30;99.90;;;;;;5011540;28;20528;-72
2023/11/13 11:47:27;;;;;;;3.60;2.20;;;10.30;99.90;;;;;;4979434;28;20041;-74
2023/11/13 11:49:56;;;;;;;4.20;2.70;;;10.30;99.90;;;;;;4994652;28;20045;-74
2023/11/13 11:52:51;;;;;;;5.97;3.22;;;10.30;99.90;;;;;;4976326;28;20033;-75
2023/11/13 11:55:20;;;;;;;5.70;3.38;;;10.40;99.90;;;;;;4994261;28;20377;-77
2023/11/13 11:57:46;;;;;;;5.07;3.30;;;10.40;99.90;;;;;;4980510;28;20492;-76
2023/11/13 12:00:19;;;;;;;8.45;4.43;;;10.50;99.90;;;;;;5011630;28;20508;-75
2023/11/13 12:02:51;;;;;;;;;;;10.50;99.90;;;;;;4979005;28;20049;-76
2023/11/13 12:05:19;;;;;;;9.57;5.18;;;10.50;99.90;;;;;;4995785;28;19921;-74
2023/11/13 12:07:50;;;;;;;12.77;6.30;;;10.60;99.90;;;;;;5025825;28;20026;-75
2023/11/13 12:10:21;;;;;;;11.65;6.78;;;10.60;99.90;;;;;;4995565;28;20034;-76
2023/11/13 12:12:48;;;;;;;8.25;5.93;;;10.70;99.90;;;;;;4978010;28;20038;-75
2023/11/13 12:15:15;;;;;;;13.15;6.22;;;10.70;99.90;;;;;;4998017;28;20050;-76
2023/11/13 12:17:43;;;;;;;11.30;6.20;;;10.70;99.90;;;;;;4995501;28;20060;-76
2023/11/13 12:20:10;;;;;;;12.68;7.97;;;10.80;99.90;;;;;;4994075;28;20483;-77
2023/11/13 12:22:38;;;;;;;11.52;7.65;;;10.80;99.90;;;;;;4980569;28;21367;-76
2023/11/13 12:25:12;;;;;;;18.88;12.25;;;10.90;99.90;;;;;;4996977;28;20030;-77
2023/11/13 12:27:43;;;;;;;15.05;9.02;;;10.90;99.90;;;;;;5012711;28;20036;-75
2023/11/13 12:30:20;;;;;;;15.50;8.93;;;11.00;99.90;;;;;;4978603;28;20377;-78
2023/11/13 12:32:53;;;;;;;14.63;7.55;;;11.00;99.90;;;;;;5007979;28;20022;-74
2023/11/13 12:35:22;;;;;;;17.23;10.10;;;11.10;99.90;;;;;;4995946;28;20049;-75
2023/11/13 12:37:50;;;;;;;16.90;10.48;;;11.10;99.90;;;;;;4975702;28;20404;-76
2023/11/13 12:40:18;;;;;;;13.23;8.52;;;11.20;99.90;;;;;;4978814;28;20045;-76
2023/11/13 12:42:45;;;;;;;15.13;8.55;;;11.30;99.90;;;;;;4991810;28;20413;-75